createdAt,value
2018-11-26T00:00:53.745Z,7.97
2018-11-26T00:03:21.899Z,7.99
2018-11-26T00:05:50.028Z,8.00
2018-11-26T00:08:18.199Z,7.97
2018-11-26T00:11:28.764Z,7.97
2018-11-26T00:13:57.308Z,7.96
2018-11-26T00:16:25.485Z,7.97
2018-11-26T00:18:53.691Z,7.99
2018-11-26T00:21:21.860Z,7.99
2018-11-26T00:23:50.004Z,7.98
2018-11-26T00:26:18.163Z,7.98
2018-11-26T00:28:46.428Z,7.98
2018-11-26T00:31:14.589Z,7.99
2018-11-26T00:33:42.811Z,7.98
2018-11-26T00:36:10.992Z,8.01
2018-11-26T00:38:39.135Z,8.02
2018-11-26T00:41:07.338Z,8.03
2018-11-26T00:43:35.501Z,8.05
2018-11-26T00:46:03.702Z,8.05
2018-11-26T00:48:31.825Z,8.06
2018-11-26T00:51:00.005Z,8.07
2018-11-26T00:53:28.181Z,8.07
2018-11-26T00:55:56.342Z,8.09
2018-11-26T00:58:24.495Z,8.10
2018-11-26T01:00:52.701Z,8.10
2018-11-26T01:03:20.915Z,8.11
2018-11-26T01:05:49.165Z,8.11
2018-11-26T01:08:17.319Z,8.12
2018-11-26T01:10:45.504Z,8.13
2018-11-26T01:13:13.675Z,8.12
2018-11-26T01:15:41.981Z,8.11
2018-11-26T01:18:10.140Z,8.12
2018-11-26T01:20:38.299Z,8.12
2018-11-26T01:23:06.520Z,8.11
2018-11-26T01:25:34.656Z,8.11
2018-11-26T01:28:02.829Z,8.10
2018-11-26T01:30:31.091Z,8.10
2018-11-26T01:32:59.271Z,8.12
2018-11-26T01:35:27.432Z,8.11
2018-11-26T01:37:55.629Z,8.13
2018-11-26T01:40:32.273Z,8.12
2018-11-26T01:43:00.471Z,8.10
2018-11-26T01:45:28.659Z,8.11
2018-11-26T01:47:56.915Z,8.11
2018-11-26T01:50:25.129Z,8.11
2018-11-26T01:52:53.368Z,8.10
2018-11-26T01:55:21.553Z,8.09
2018-11-26T01:57:49.687Z,8.09
2018-11-26T02:00:19.935Z,8.09
2018-11-26T02:02:48.123Z,8.08
2018-11-26T02:05:16.424Z,8.07
2018-11-26T02:07:44.585Z,8.07
2018-11-26T02:10:14.285Z,8.06
2018-11-26T02:12:42.435Z,8.06
2018-11-26T02:15:12.796Z,8.05
2018-11-26T02:17:41.189Z,8.07
2018-11-26T02:20:10.324Z,8.04
2018-11-26T02:22:38.564Z,8.02
2018-11-26T02:25:07.803Z,8.01
2018-11-26T02:27:36.114Z,8.02
2018-11-26T02:30:04.403Z,8.01
2018-11-26T02:32:32.557Z,8.00
2018-11-26T02:35:00.703Z,8.00
2018-11-26T02:37:28.869Z,8.01
2018-11-26T02:39:57.032Z,8.00
2018-11-26T02:42:25.220Z,8.00
2018-11-26T02:44:53.412Z,8.00
2018-11-26T02:47:21.583Z,7.98
2018-11-26T02:49:49.751Z,7.97
2018-11-26T02:52:17.903Z,7.96
2018-11-26T02:54:46.091Z,7.97
2018-11-26T02:57:14.239Z,7.96
2018-11-26T02:59:42.404Z,7.94
2018-11-26T03:02:10.579Z,7.94
2018-11-26T03:04:38.803Z,7.93
2018-11-26T03:07:06.956Z,7.93
2018-11-26T03:09:35.112Z,7.90
2018-11-26T03:12:03.286Z,7.88
2018-11-26T03:14:31.500Z,7.89
2018-11-26T03:16:59.708Z,7.90
2018-11-26T03:19:27.933Z,7.92
2018-11-26T03:21:56.312Z,7.92
2018-11-26T03:24:24.488Z,7.94
2018-11-26T03:26:52.663Z,7.93
2018-11-26T03:29:20.836Z,7.93
2018-11-26T03:31:48.971Z,7.95
2018-11-26T03:34:17.200Z,7.95
2018-11-26T03:36:45.356Z,7.95
2018-11-26T03:39:13.543Z,7.95
2018-11-26T03:41:41.763Z,7.96
2018-11-26T03:44:09.979Z,7.97
2018-11-26T03:46:38.128Z,7.98
2018-11-26T03:49:06.620Z,7.97
2018-11-26T03:51:34.787Z,8.00
2018-11-26T03:54:02.929Z,8.00
2018-11-26T03:56:31.154Z,8.00
2018-11-26T03:58:59.365Z,8.01
2018-11-26T04:01:27.595Z,8.01
2018-11-26T04:03:55.790Z,8.01
2018-11-26T04:06:23.944Z,8.00
2018-11-26T04:08:52.223Z,7.99
2018-11-26T04:11:20.393Z,7.98
2018-11-26T04:13:48.672Z,7.98
2018-11-26T04:16:16.830Z,7.97
2018-11-26T04:18:44.977Z,7.96
2018-11-26T04:21:13.112Z,7.95
2018-11-26T04:23:41.268Z,7.93
2018-11-26T04:26:09.432Z,7.94
2018-11-26T04:28:37.753Z,7.95
2018-11-26T04:31:06.060Z,7.94
2018-11-26T04:33:34.207Z,7.96
2018-11-26T04:36:02.459Z,7.95
2018-11-26T04:38:30.649Z,7.95
2018-11-26T04:40:58.841Z,7.95
2018-11-26T04:43:27.026Z,7.96
2018-11-26T04:45:55.348Z,7.95
2018-11-26T04:48:23.617Z,7.94
2018-11-26T04:50:51.824Z,7.94
2018-11-26T04:53:19.988Z,7.94
2018-11-26T04:55:48.133Z,7.92
2018-11-26T04:58:16.332Z,7.91
2018-11-26T05:00:44.476Z,7.92
2018-11-26T05:03:12.777Z,7.91
2018-11-26T05:05:41.081Z,7.90
2018-11-26T05:08:09.417Z,7.90
2018-11-26T05:10:37.599Z,7.89
2018-11-26T05:13:06.076Z,7.89
2018-11-26T05:15:34.305Z,7.87
2018-11-26T05:18:02.512Z,7.84
2018-11-26T05:20:30.732Z,7.85
2018-11-26T05:22:59.003Z,7.84
2018-11-26T05:25:27.170Z,7.83
2018-11-26T05:27:55.535Z,7.82
2018-11-26T05:30:23.716Z,7.81
2018-11-26T05:32:51.912Z,7.80
2018-11-26T05:35:20.241Z,7.79
2018-11-26T05:37:48.428Z,7.79
2018-11-26T05:40:16.711Z,7.76
2018-11-26T05:42:44.892Z,7.76
2018-11-26T05:45:17.120Z,7.78
2018-11-26T05:47:45.447Z,7.76
2018-11-26T05:50:14.467Z,7.75
2018-11-26T05:52:42.708Z,7.76
2018-11-26T05:55:13.764Z,7.74
2018-11-26T05:57:41.963Z,7.75
2018-11-26T06:00:12.169Z,7.74
2018-11-26T06:02:40.629Z,7.73
2018-11-26T06:05:09.164Z,7.74
2018-11-26T06:07:37.463Z,7.75
2018-11-26T06:10:08.986Z,7.75
2018-11-26T06:12:37.163Z,7.75
2018-11-26T06:15:10.907Z,7.75
2018-11-26T06:17:39.329Z,7.75
2018-11-26T06:20:12.109Z,7.74
2018-11-26T06:22:41.760Z,7.74
2018-11-26T06:25:11.864Z,7.72
2018-11-26T06:27:40.941Z,7.72
2018-11-26T06:30:12.984Z,7.72
2018-11-26T06:32:41.633Z,7.72
2018-11-26T06:35:18.827Z,7.73
2018-11-26T06:37:47.138Z,7.74
2018-11-26T06:40:15.417Z,7.76
2018-11-26T06:42:43.634Z,7.79
2018-11-26T06:45:16.336Z,7.81
2018-11-26T06:47:49.415Z,7.83
2018-11-26T06:50:18.719Z,7.86
2018-11-26T06:52:47.380Z,7.89
2018-11-26T06:55:16.855Z,7.89
2018-11-26T06:57:45.062Z,7.90
2018-11-26T07:00:16.262Z,7.91
2018-11-26T07:02:44.591Z,7.93
2018-11-26T07:05:14.201Z,7.94
2018-11-26T07:07:42.998Z,7.97
2018-11-26T07:10:12.354Z,7.99
2018-11-26T07:12:40.686Z,7.99
2018-11-26T07:15:11.902Z,8.00
2018-11-26T07:17:40.145Z,8.02
2018-11-26T07:20:12.505Z,8.04
2018-11-26T07:22:40.773Z,8.04
2018-11-26T07:25:16.225Z,8.05
2018-11-26T07:27:45.740Z,8.05
2018-11-26T07:30:15.323Z,8.05
2018-11-26T07:32:43.924Z,8.05
2018-11-26T07:35:12.748Z,8.05
2018-11-26T07:37:41.350Z,8.04
2018-11-26T07:40:15.477Z,8.05
2018-11-26T07:42:46.389Z,8.06
2018-11-26T07:45:14.877Z,8.07
2018-11-26T07:47:43.096Z,8.08
2018-11-26T07:50:12.684Z,8.09
2018-11-26T07:52:40.972Z,8.11
2018-11-26T07:55:10.839Z,8.12
2018-11-26T07:57:38.992Z,8.14
2018-11-26T08:00:11.608Z,8.16
2018-11-26T08:02:39.858Z,8.16
2018-11-26T08:05:09.752Z,8.18
2018-11-26T08:07:37.941Z,8.19
2018-11-26T08:10:10.352Z,8.20
2018-11-26T08:12:38.610Z,8.20
2018-11-26T08:15:09.767Z,8.22
2018-11-26T08:17:37.903Z,8.24
2018-11-26T08:20:07.180Z,8.25
2018-11-26T08:22:35.311Z,8.27
2018-11-26T08:25:03.607Z,8.29
2018-11-26T08:27:31.823Z,8.32
2018-11-26T08:30:00.097Z,8.36
2018-11-26T08:32:34.034Z,8.37
2018-11-26T08:34:56.525Z,8.38
2018-11-26T08:37:30.063Z,8.41
2018-11-26T08:40:03.671Z,8.42
2018-11-26T08:42:37.926Z,8.45
2018-11-26T08:45:14.949Z,8.49
2018-11-26T08:47:43.160Z,8.52
2018-11-26T08:50:11.420Z,8.53
2018-11-26T08:52:39.567Z,8.56
2018-11-26T08:55:08.483Z,8.57
2018-11-26T08:57:36.632Z,8.61
2018-11-26T09:00:05.409Z,8.62
2018-11-26T09:02:37.717Z,8.66
2018-11-26T09:05:23.750Z,8.69
2018-11-26T09:07:44.748Z,8.76
2018-11-26T09:10:12.901Z,8.79
2018-11-26T09:12:41.047Z,8.83
2018-11-26T09:15:10.255Z,8.89
2018-11-26T09:17:38.516Z,8.92
2018-11-26T09:20:09.690Z,8.94
2018-11-26T09:22:38.004Z,8.96
2018-11-26T09:25:09.392Z,8.99
2018-11-26T09:27:37.562Z,9.02
2018-11-26T09:30:12.616Z,9.02
2018-11-26T09:32:41.526Z,9.02
2018-11-26T09:35:13.418Z,9.05
2018-11-26T09:37:41.760Z,9.04
2018-11-26T09:40:13.461Z,9.05
2018-11-26T09:42:42.225Z,9.07
2018-11-26T09:45:12.060Z,9.06
2018-11-26T09:47:40.318Z,9.06
2018-11-26T09:50:11.358Z,9.06
2018-11-26T09:52:39.662Z,9.06
2018-11-26T09:55:08.423Z,9.06
2018-11-26T09:57:36.740Z,9.07
2018-11-26T10:00:08.556Z,9.05
2018-11-26T10:02:36.825Z,9.05
2018-11-26T10:05:08.128Z,9.07
2018-11-26T10:07:37.770Z,9.08
2018-11-26T10:10:08.100Z,9.09
2018-11-26T10:12:36.688Z,9.11
2018-11-26T10:15:21.260Z,9.14
2018-11-26T10:17:49.653Z,9.16
2018-11-26T10:20:17.872Z,9.18
2018-11-26T10:22:46.652Z,9.20
2018-11-26T10:25:16.499Z,9.20
2018-11-26T10:27:44.705Z,9.22
2018-11-26T10:30:16.077Z,9.23
2018-11-26T10:32:44.862Z,9.24
2018-11-26T10:35:14.719Z,9.23
2018-11-26T10:37:43.008Z,9.25
2018-11-26T10:40:12.379Z,9.25
2018-11-26T10:42:40.570Z,9.27
2018-11-26T10:45:11.665Z,9.30
2018-11-26T10:47:39.869Z,9.33
2018-11-26T10:50:10.230Z,9.33
2018-11-26T10:52:38.454Z,9.33
2018-11-26T10:55:09.652Z,9.36
2018-11-26T10:57:37.821Z,9.39
2018-11-26T11:00:13.385Z,9.41
2018-11-26T11:02:42.541Z,9.41
2018-11-26T11:05:10.906Z,9.40
2018-11-26T11:07:39.451Z,9.41
2018-11-26T11:10:13.731Z,9.39
2018-11-26T11:12:41.912Z,9.41
2018-11-26T11:15:12.229Z,9.43
2018-11-26T11:17:40.737Z,9.43
2018-11-26T11:20:15.124Z,9.43
2018-11-26T11:22:43.384Z,9.40
2018-11-26T11:25:13.123Z,9.38
2018-11-26T11:27:41.370Z,9.35
2018-11-26T11:30:14.079Z,9.33
2018-11-26T11:32:42.283Z,9.30
2018-11-26T11:35:11.823Z,9.28
2018-11-26T11:37:40.397Z,9.28
2018-11-26T11:40:14.150Z,9.26
2018-11-26T11:42:42.348Z,9.24
2018-11-26T11:45:11.822Z,9.22
2018-11-26T11:47:40.051Z,9.22
2018-11-26T11:50:11.335Z,9.20
2018-11-26T11:52:39.534Z,9.21
2018-11-26T11:56:15.382Z,9.22
2018-11-26T11:58:43.565Z,9.22
2018-11-26T12:01:11.906Z,9.24
2018-11-26T12:03:40.117Z,9.26
2018-11-26T12:06:08.281Z,9.28
2018-11-26T12:08:36.526Z,9.30
2018-11-26T12:11:04.811Z,9.30
2018-11-26T12:13:33.006Z,9.31
2018-11-26T12:16:01.288Z,9.30
2018-11-26T12:18:29.514Z,9.32
2018-11-26T12:20:57.715Z,9.31
2018-11-26T12:23:25.989Z,9.32
2018-11-26T12:25:54.197Z,9.33
2018-11-26T12:28:22.482Z,9.35
2018-11-26T12:30:50.693Z,9.37
2018-11-26T12:33:18.881Z,9.37
2018-11-26T12:35:47.181Z,9.40
2018-11-26T12:38:15.405Z,9.44
2018-11-26T12:40:43.757Z,9.44
2018-11-26T12:43:11.969Z,9.44
2018-11-26T12:45:40.212Z,9.45
2018-11-26T12:48:08.412Z,9.46
2018-11-26T12:50:36.993Z,9.44
2018-11-26T12:53:05.300Z,9.46
2018-11-26T12:55:33.974Z,9.46
2018-11-26T12:58:02.385Z,9.48
2018-11-26T13:00:30.591Z,9.51
2018-11-26T13:03:06.170Z,9.50
2018-11-26T13:05:34.451Z,9.49
2018-11-26T13:08:02.625Z,9.50
2018-11-26T13:10:30.874Z,9.54
2018-11-26T13:12:59.157Z,9.58
2018-11-26T13:15:28.386Z,9.61
2018-11-26T13:17:56.612Z,9.60
2018-11-26T13:20:26.576Z,9.60
2018-11-26T13:22:55.018Z,9.59
2018-11-26T13:25:24.414Z,9.59
2018-11-26T13:27:54.522Z,9.57
2018-11-26T13:30:23.862Z,9.57
2018-11-26T13:32:54.156Z,9.56
2018-11-26T13:35:22.297Z,9.56
2018-11-26T13:37:50.496Z,9.58
2018-11-26T13:40:19.349Z,9.57
2018-11-26T13:42:47.686Z,9.57
2018-11-26T13:45:29.425Z,9.56
2018-11-26T13:47:57.649Z,9.59
2018-11-26T13:50:28.161Z,9.60
2018-11-26T13:52:56.680Z,9.58
2018-11-26T13:55:24.941Z,9.55
2018-11-26T13:57:53.154Z,9.52
2018-11-26T14:00:21.435Z,9.52
2018-11-26T14:02:49.639Z,9.50
2018-11-26T14:05:18.576Z,9.49
2018-11-26T14:07:47.411Z,9.48
2018-11-26T14:10:16.941Z,9.47
2018-11-26T14:12:46.024Z,9.46
2018-11-26T14:15:15.373Z,9.44
2018-11-26T14:17:43.621Z,9.42
2018-11-26T14:20:14.078Z,9.43
2018-11-26T14:22:42.348Z,9.42
2018-11-26T14:25:14.676Z,9.42
2018-11-26T14:27:43.395Z,9.44
2018-11-26T14:30:15.056Z,9.45
2018-11-26T14:32:43.306Z,9.43
2018-11-26T14:35:12.165Z,9.41
2018-11-26T14:37:39.742Z,9.40
2018-11-26T14:40:13.335Z,9.38
2018-11-26T14:42:41.650Z,9.36
2018-11-26T14:45:11.345Z,9.34
2018-11-26T14:47:39.709Z,9.32
2018-11-26T14:50:13.452Z,9.29
2018-11-26T14:52:42.525Z,9.29
2018-11-26T14:55:13.134Z,9.30
2018-11-26T14:57:41.347Z,9.29
2018-11-26T15:00:13.633Z,9.27
2018-11-26T15:02:41.833Z,9.25
2018-11-26T15:05:10.257Z,9.24
2018-11-26T15:07:38.514Z,9.23
2018-11-26T15:10:08.833Z,9.23
2018-11-26T15:12:36.976Z,9.22
2018-11-26T15:15:07.313Z,9.20
2018-11-26T15:17:35.461Z,9.18
2018-11-26T15:20:04.397Z,9.17
2018-11-26T15:22:32.619Z,9.16
2018-11-26T15:25:00.760Z,9.20
2018-11-26T15:27:29.015Z,9.17
2018-11-26T15:29:57.167Z,9.12
2018-11-26T15:32:25.332Z,9.12
2018-11-26T15:34:53.485Z,9.11
2018-11-26T15:37:21.659Z,9.07
2018-11-26T15:39:49.768Z,9.05
2018-11-26T15:42:17.929Z,9.05
2018-11-26T15:44:46.097Z,9.05
2018-11-26T15:47:14.252Z,9.10
2018-11-26T15:49:42.537Z,9.09
2018-11-26T15:52:10.714Z,9.10
2018-11-26T15:54:38.905Z,9.10
2018-11-26T15:57:07.049Z,9.10
2018-11-26T15:59:35.233Z,9.10
2018-11-26T16:02:03.444Z,9.08
2018-11-26T16:04:31.624Z,9.06
2018-11-26T16:06:59.778Z,9.06
2018-11-26T16:09:27.925Z,9.04
2018-11-26T16:11:56.085Z,9.03
2018-11-26T16:14:24.260Z,9.06
2018-11-26T16:16:52.434Z,9.08
2018-11-26T16:19:20.662Z,9.07
2018-11-26T16:21:48.828Z,9.05
2018-11-26T16:24:17.001Z,9.06
2018-11-26T16:26:45.198Z,9.11
2018-11-26T16:29:13.361Z,9.15
2018-11-26T16:31:41.553Z,9.15
2018-11-26T16:34:09.701Z,9.15
2018-11-26T16:36:37.924Z,9.14
2018-11-26T16:39:08.339Z,9.12
2018-11-26T16:41:36.485Z,9.10
2018-11-26T16:44:04.706Z,9.08
2018-11-26T16:46:32.946Z,9.06
2018-11-26T16:49:01.100Z,9.01
2018-11-26T16:51:29.300Z,9.05
2018-11-26T16:53:57.458Z,9.07
2018-11-26T16:56:25.705Z,9.12
2018-11-26T16:58:53.892Z,9.12
2018-11-26T17:01:22.094Z,9.09
2018-11-26T17:03:50.334Z,9.06
2018-11-26T17:06:18.524Z,9.03
2018-11-26T17:08:46.705Z,9.02
2018-11-26T17:11:14.849Z,8.98
2018-11-26T17:13:43.074Z,9.02
2018-11-26T17:16:11.382Z,9.04
2018-11-26T17:18:39.538Z,9.14
2018-11-26T17:21:07.681Z,9.20
2018-11-26T17:23:35.829Z,9.18
2018-11-26T17:26:04.017Z,9.14
2018-11-26T17:28:32.280Z,9.10
2018-11-26T17:31:00.545Z,9.07
2018-11-26T17:33:28.732Z,9.06
2018-11-26T17:35:56.901Z,9.04
2018-11-26T17:38:25.118Z,9.01
2018-11-26T17:40:53.320Z,8.97
2018-11-26T17:43:21.539Z,8.93
2018-11-26T17:45:49.746Z,8.92
2018-11-26T17:48:17.985Z,8.96
2018-11-26T17:50:46.184Z,8.96
2018-11-26T17:53:18.563Z,8.96
2018-11-26T17:55:53.039Z,8.95
2018-11-26T17:58:22.541Z,8.96
2018-11-26T18:00:54.320Z,8.92
2018-11-26T18:03:22.498Z,8.90
2018-11-26T18:05:50.681Z,8.86
2018-11-26T18:08:19.889Z,8.84
2018-11-26T18:10:48.056Z,8.81
2018-11-26T18:13:16.277Z,8.79
2018-11-26T18:15:44.507Z,8.81
2018-11-26T18:18:15.304Z,8.84
2018-11-26T18:20:43.730Z,8.83
2018-11-26T18:23:12.077Z,8.81
2018-11-26T18:25:40.583Z,8.78
2018-11-26T18:28:09.961Z,8.78
2018-11-26T18:30:40.793Z,8.76
2018-11-26T18:33:09.087Z,8.76
2018-11-26T18:35:37.730Z,8.75
2018-11-26T18:38:06.887Z,8.75
2018-11-26T18:40:36.059Z,8.73
2018-11-26T18:43:04.263Z,8.74
2018-11-26T18:45:32.487Z,8.72
2018-11-26T18:48:00.665Z,8.70
2018-11-26T18:50:29.303Z,8.68
2018-11-26T18:52:58.053Z,8.66
2018-11-26T18:55:26.250Z,8.67
2018-11-26T18:57:54.506Z,8.65
2018-11-26T19:00:27.053Z,8.62
2018-11-26T19:02:55.769Z,8.60
2018-11-26T19:05:23.921Z,8.57
2018-11-26T19:07:52.132Z,8.54
2018-11-26T19:10:22.342Z,8.56
2018-11-26T19:12:55.429Z,8.56
2018-11-26T19:15:26.761Z,8.55
2018-11-26T19:17:57.082Z,8.55
2018-11-26T19:20:25.261Z,8.52
2018-11-26T19:22:53.417Z,8.50
2018-11-26T19:25:21.593Z,8.50
2018-11-26T19:27:49.993Z,8.49
2018-11-26T19:30:22.851Z,8.45
2018-11-26T19:32:46.630Z,8.45
2018-11-26T19:35:15.621Z,8.44
2018-11-26T19:37:43.900Z,8.46
2018-11-26T19:40:13.317Z,8.45
2018-11-26T19:42:42.510Z,8.44
2018-11-26T19:45:13.161Z,8.45
2018-11-26T19:47:41.409Z,8.44
2018-11-26T19:50:11.137Z,8.43
2018-11-26T19:52:39.364Z,8.43
2018-11-26T19:55:16.224Z,8.43
2018-11-26T19:57:45.137Z,8.45
2018-11-26T20:00:24.164Z,8.44
2018-11-26T20:03:26.580Z,8.43
2018-11-26T20:06:25.660Z,8.40
2018-11-26T20:08:56.843Z,8.39
2018-11-26T20:11:25.101Z,8.36
2018-11-26T20:13:53.259Z,8.35
2018-11-26T20:16:24.305Z,8.35
2018-11-26T20:18:52.492Z,8.36
2018-11-26T20:21:20.657Z,8.36
2018-11-26T20:23:48.857Z,8.38
2018-11-26T20:26:17.058Z,8.39
2018-11-26T20:28:45.268Z,8.36
2018-11-26T20:31:13.453Z,8.34
2018-11-26T20:33:41.692Z,8.34
2018-11-26T20:36:11.545Z,8.33
2018-11-26T20:38:39.752Z,8.31
2018-11-26T20:41:09.494Z,8.30
2018-11-26T20:43:37.689Z,8.30
2018-11-26T20:46:06.118Z,8.29
2018-11-26T20:48:34.338Z,8.30
2018-11-26T20:51:02.541Z,8.29
2018-11-26T20:53:31.077Z,8.28
2018-11-26T20:55:59.885Z,8.28
2018-11-26T20:58:28.153Z,8.26
2018-11-26T21:00:56.364Z,8.26
2018-11-26T21:03:24.644Z,8.25
2018-11-26T21:05:52.953Z,8.24
2018-11-26T21:08:21.173Z,8.24
2018-11-26T21:10:49.496Z,8.24
2018-11-26T21:13:17.891Z,8.23
2018-11-26T21:15:46.562Z,8.25
2018-11-26T21:18:14.821Z,8.26
2018-11-26T21:20:45.856Z,8.25
2018-11-26T21:23:19.449Z,8.26
2018-11-26T21:25:47.777Z,8.25
2018-11-26T21:28:16.011Z,8.24
2018-11-26T21:30:44.249Z,8.22
2018-11-26T21:33:12.588Z,8.20
2018-11-26T21:35:40.822Z,8.19
2018-11-26T21:38:10.477Z,8.18
2018-11-26T21:40:39.486Z,8.16
2018-11-26T21:43:08.512Z,8.16
2018-11-26T21:45:42.841Z,8.13
2018-11-26T21:48:11.037Z,8.11
2018-11-26T21:50:39.234Z,8.11
2018-11-26T21:53:07.996Z,8.10
2018-11-26T21:55:36.200Z,8.08
2018-11-26T21:58:04.417Z,8.07
2018-11-26T22:00:32.980Z,8.08
2018-11-26T22:03:06.589Z,8.08
2018-11-26T22:05:34.822Z,8.07
2018-11-26T22:08:03.191Z,8.06
2018-11-26T22:10:31.409Z,8.04
2018-11-26T22:12:59.748Z,8.04
2018-11-26T22:15:27.945Z,8.04
2018-11-26T22:17:56.137Z,8.05
2018-11-26T22:20:25.694Z,8.05
2018-11-26T22:22:53.893Z,8.05
2018-11-26T22:25:22.166Z,8.05
2018-11-26T22:27:50.957Z,8.05
2018-11-26T22:30:21.275Z,8.04
2018-11-26T22:32:49.462Z,8.04
2018-11-26T22:35:17.694Z,8.02
2018-11-26T22:37:45.881Z,8.00
2018-11-26T22:40:20.151Z,8.01
2018-11-26T22:42:48.470Z,8.00
2018-11-26T22:45:21.320Z,8.01
2018-11-26T22:47:51.834Z,8.02
2018-11-26T22:50:20.003Z,8.03
2018-11-26T22:52:48.210Z,8.04
2018-11-26T22:55:16.465Z,8.04
2018-11-26T22:57:45.472Z,8.03
2018-11-26T23:00:15.980Z,8.03
2018-11-26T23:02:44.238Z,8.01
2018-11-26T23:05:12.424Z,8.01
2018-11-26T23:07:41.192Z,8.02
2018-11-26T23:10:09.797Z,8.03
2018-11-26T23:12:37.973Z,8.02
2018-11-26T23:15:09.220Z,8.01
2018-11-26T23:17:37.377Z,8.01
2018-11-26T23:20:08.344Z,8.00
2018-11-26T23:22:36.525Z,8.00
2018-11-26T23:25:05.512Z,8.00
2018-11-26T23:27:33.729Z,8.01
2018-11-26T23:30:01.993Z,8.00
2018-11-26T23:32:30.160Z,7.99
2018-11-26T23:34:58.333Z,7.97
2018-11-26T23:37:26.484Z,7.94
2018-11-26T23:39:54.721Z,7.94
2018-11-26T23:42:22.889Z,7.94
2018-11-26T23:44:51.063Z,7.93
2018-11-26T23:47:19.231Z,7.92
2018-11-26T23:49:47.382Z,7.92
2018-11-26T23:52:15.581Z,7.91
2018-11-26T23:54:43.801Z,7.91
2018-11-26T23:57:11.964Z,7.89
2018-11-26T23:59:40.121Z,7.87
